sensor_id;sensor_type;location;lat;lon;timestamp;pressure;altitude;pressure_sealevel;temperature;humidity
47522;BME280;32291;52.010;4.446;2023-08-17T00:00:30;78141.94;;;-144.67;100.00
47522;BME280;32291;52.010;4.446;2023-08-17T00:01:32;78146.22;;;-144.67;100.00
47522;BME280;32291;52.010;4.446;2023-08-17T00:02:34;78154.78;;;-144.67;100.00
47522;BME280;32291;52.010;4.446;2023-08-17T00:04:06;78154.78;;;-144.67;100.00
47522;BME280;32291;52.010;4.446;2023-08-17T00:05:10;78152.66;;;-144.67;100.00
47522;BME280;32291;52.010;4.446;2023-08-17T00:06:13;78154.78;;;-144.67;100.00
47522;BME280;32291;52.010;4.446;2023-08-17T00:07:16;78159.06;;;-144.67;100.00
47522;BME280;32291;52.010;4.446;2023-08-17T00:08:18;78159.06;;;-144.67;100.00
47522;BME280;32291;52.010;4.446;2023-08-17T00:09:21;78159.06;;;-144.67;100.00
47522;BME280;32291;52.010;4.446;2023-08-17T00:10:24;78150.50;;;-144.67;100.00
47522;BME280;32291;52.010;4.446;2023-08-17T00:11:34;78159.06;;;-144.67;100.00
47522;BME280;32291;52.010;4.446;2023-08-17T00:12:37;78161.22;;;-144.67;100.00
47522;BME280;32291;52.010;4.446;2023-08-17T00:13:44;78161.22;;;-144.67;100.00
47522;BME280;32291;52.010;4.446;2023-08-17T00:14:46;78163.34;;;-144.67;100.00
47522;BME280;32291;52.010;4.446;2023-08-17T00:15:49;78176.19;;;-144.67;100.00
47522;BME280;32291;52.010;4.446;2023-08-17T00:16:51;78171.91;;;-144.67;100.00
47522;BME280;32291;52.010;4.446;2023-08-17T00:17:58;78171.91;;;-144.67;100.00
47522;BME280;32291;52.010;4.446;2023-08-17T00:19:01;78171.91;;;-144.67;100.00
47522;BME280;32291;52.010;4.446;2023-08-17T00:20:09;78167.63;;;-144.67;100.00
47522;BME280;32291;52.010;4.446;2023-08-17T00:21:15;78176.19;;;-144.67;100.00
47522;BME280;32291;52.010;4.446;2023-08-17T00:22:22;78169.78;;;-144.67;100.00
47522;BME280;32291;52.010;4.446;2023-08-17T00:23:24;78180.47;;;-144.67;100.00
47522;BME280;32291;52.010;4.446;2023-08-17T00:24:27;78174.06;;;-144.67;100.00
47522;BME280;32291;52.010;4.446;2023-08-17T00:25:29;78176.19;;;-144.67;100.00
47522;BME280;32291;52.010;4.446;2023-08-17T00:26:32;78171.91;;;-144.67;100.00
47522;BME280;32291;52.010;4.446;2023-08-17T00:27:34;78176.19;;;-144.67;100.00
47522;BME280;32291;52.010;4.446;2023-08-17T00:28:37;78180.47;;;-144.67;100.00
47522;BME280;32291;52.010;4.446;2023-08-17T00:29:40;78174.06;;;-144.67;100.00
47522;BME280;32291;52.010;4.446;2023-08-17T00:30:42;78171.91;;;-144.67;100.00
47522;BME280;32291;52.010;4.446;2023-08-17T00:31:45;78176.19;;;-144.67;100.00
47522;BME280;32291;52.010;4.446;2023-08-17T00:32:49;78176.19;;;-144.67;100.00
47522;BME280;32291;52.010;4.446;2023-08-17T00:33:55;78180.47;;;-144.67;100.00
47522;BME280;32291;52.010;4.446;2023-08-17T00:34:57;78180.47;;;-144.67;100.00
47522;BME280;32291;52.010;4.446;2023-08-17T00:36:00;78176.19;;;-144.67;100.00
47522;BME280;32291;52.010;4.446;2023-08-17T00:37:05;78184.75;;;-144.67;100.00
47522;BME280;32291;52.010;4.446;2023-08-17T00:38:07;78184.75;;;-144.67;100.00
47522;BME280;32291;52.010;4.446;2023-08-17T00:39:10;78189.03;;;-144.67;100.00
47522;BME280;32291;52.010;4.446;2023-08-17T00:40:12;78184.75;;;-144.67;100.00
47522;BME280;32291;52.010;4.446;2023-08-17T00:41:19;78186.91;;;-144.67;100.00
47522;BME280;32291;52.010;4.446;2023-08-17T00:42:27;78191.19;;;-144.67;100.00
47522;BME280;32291;52.010;4.446;2023-08-17T00:43:29;78195.47;;;-144.67;100.00
47522;BME280;32291;52.010;4.446;2023-08-17T00:44:32;78191.19;;;-144.67;100.00
47522;BME280;32291;52.010;4.446;2023-08-17T00:45:35;78197.59;;;-144.67;100.00
47522;BME280;32291;52.010;4.446;2023-08-17T00:46:38;78197.59;;;-144.67;100.00
47522;BME280;32291;52.010;4.446;2023-08-17T00:47:42;78197.59;;;-144.67;100.00
47522;BME280;32291;52.010;4.446;2023-08-17T00:48:44;78193.31;;;-144.67;100.00
47522;BME280;32291;52.010;4.446;2023-08-17T00:49:49;78195.47;;;-144.67;100.00
47522;BME280;32291;52.010;4.446;2023-08-17T00:50:53;78197.59;;;-144.67;100.00
47522;BME280;32291;52.010;4.446;2023-08-17T00:51:57;78206.19;;;-144.67;100.00
47522;BME280;32291;52.010;4.446;2023-08-17T00:53:00;78197.59;;;-144.67;100.00
47522;BME280;32291;52.010;4.446;2023-08-17T00:54:03;78199.75;;;-144.67;100.00
47522;BME280;32291;52.010;4.446;2023-08-17T00:55:06;78201.91;;;-144.67;100.00
47522;BME280;32291;52.010;4.446;2023-08-17T00:56:12;78201.91;;;-144.67;100.00
47522;BME280;32291;52.010;4.446;2023-08-17T00:57:20;78208.31;;;-144.67;100.00
47522;BME280;32291;52.010;4.446;2023-08-17T00:58:23;78201.91;;;-144.67;100.00
47522;BME280;32291;52.010;4.446;2023-08-17T00:59:25;78212.59;;;-144.67;100.00
47522;BME280;32291;52.010;4.446;2023-08-17T01:00:28;78208.31;;;-144.67;100.00
47522;BME280;32291;52.010;4.446;2023-08-17T01:01:30;78210.47;;;-144.67;100.00
47522;BME280;32291;52.010;4.446;2023-08-17T01:02:33;78206.19;;;-144.67;100.00
47522;BME280;32291;52.010;4.446;2023-08-17T01:03:37;78206.19;;;-144.67;100.00
47522;BME280;32291;52.010;4.446;2023-08-17T01:04:42;78204.03;;;-144.67;100.00
47522;BME280;32291;52.010;4.446;2023-08-17T01:05:53;78199.75;;;-144.67;100.00
47522;BME280;32291;52.010;4.446;2023-08-17T01:07:01;78204.03;;;-144.67;100.00
47522;BME280;32291;52.010;4.446;2023-08-17T01:08:04;78201.91;;;-144.67;100.00
47522;BME280;32291;52.010;4.446;2023-08-17T01:09:06;78208.31;;;-144.67;100.00
47522;BME280;32291;52.010;4.446;2023-08-17T01:10:12;78208.31;;;-144.67;100.00
47522;BME280;32291;52.010;4.446;2023-08-17T01:11:45;78210.47;;;-144.67;100.00
47522;BME280;32291;52.010;4.446;2023-08-17T01:13:06;78208.31;;;-144.67;100.00
47522;BME280;32291;52.010;4.446;2023-08-17T01:14:35;78206.19;;;-144.67;100.00
47522;BME280;32291;52.010;4.446;2023-08-17T01:15:49;78208.31;;;-144.67;100.00
47522;BME280;32291;52.010;4.446;2023-08-17T01:17:12;78210.47;;;-144.67;100.00
47522;BME280;32291;52.010;4.446;2023-08-17T01:18:40;78206.19;;;-144.67;100.00
47522;BME280;32291;52.010;4.446;2023-08-17T01:19:44;78204.03;;;-144.67;100.00
47522;BME280;32291;52.010;4.446;2023-08-17T01:21:05;78193.31;;;-144.67;100.00
47522;BME280;32291;52.010;4.446;2023-08-17T01:22:11;78206.19;;;-144.67;100.00
47522;BME280;32291;52.010;4.446;2023-08-17T01:23:19;78206.19;;;-144.67;100.00
47522;BME280;32291;52.010;4.446;2023-08-17T01:24:22;78210.47;;;-144.67;100.00
47522;BME280;32291;52.010;4.446;2023-08-17T01:25:25;78216.88;;;-144.67;100.00
47522;BME280;32291;52.010;4.446;2023-08-17T01:26:33;78219.03;;;-144.67;100.00
47522;BME280;32291;52.010;4.446;2023-08-17T01:27:44;78208.31;;;-144.67;100.00
47522;BME280;32291;52.010;4.446;2023-08-17T01:28:50;78219.03;;;-144.67;100.00
47522;BME280;32291;52.010;4.446;2023-08-17T01:29:53;78214.75;;;-144.67;100.00
47522;BME280;32291;52.010;4.446;2023-08-17T01:30:58;78219.03;;;-144.67;100.00
47522;BME280;32291;52.010;4.446;2023-08-17T01:32:28;78214.75;;;-144.67;100.00
47522;BME280;32291;52.010;4.446;2023-08-17T01:33:54;78219.03;;;-144.67;100.00
47522;BME280;32291;52.010;4.446;2023-08-17T01:36:58;78219.03;;;-144.67;100.00
47522;BME280;32291;52.010;4.446;2023-08-17T01:38:15;78219.03;;;-144.67;100.00
47522;BME280;32291;52.010;4.446;2023-08-17T01:39:49;78223.31;;;-144.67;100.00
47522;BME280;32291;52.010;4.446;2023-08-17T01:40:53;78223.31;;;-144.67;100.00
47522;BME280;32291;52.010;4.446;2023-08-17T01:41:58;78221.16;;;-144.67;100.00
47522;BME280;32291;52.010;4.446;2023-08-17T01:43:03;78227.59;;;-144.67;100.00
47522;BME280;32291;52.010;4.446;2023-08-17T01:44:08;78229.72;;;-144.67;100.00
47522;BME280;32291;52.010;4.446;2023-08-17T01:45:11;78227.59;;;-144.67;100.00
47522;BME280;32291;52.010;4.446;2023-08-17T01:46:18;78227.59;;;-144.67;100.00
47522;BME280;32291;52.010;4.446;2023-08-17T01:47:22;78223.31;;;-144.67;100.00
47522;BME280;32291;52.010;4.446;2023-08-17T01:48:27;78223.31;;;-144.67;100.00
47522;BME280;32291;52.010;4.446;2023-08-17T01:49:34;78212.59;;;-144.67;100.00
47522;BME280;32291;52.010;4.446;2023-08-17T01:50:37;78227.59;;;-144.67;100.00
47522;BME280;32291;52.010;4.446;2023-08-17T01:51:39;78219.03;;;-144.67;100.00
47522;BME280;32291;52.010;4.446;2023-08-17T01:52:42;78221.16;;;-144.67;100.00
47522;BME280;32291;52.010;4.446;2023-08-17T01:53:44;78227.59;;;-144.67;100.00
47522;BME280;32291;52.010;4.446;2023-08-17T01:54:47;78227.59;;;-144.67;100.00
47522;BME280;32291;52.010;4.446;2023-08-17T01:55:57;78227.59;;;-144.67;100.00
47522;BME280;32291;52.010;4.446;2023-08-17T01:56:59;78223.31;;;-144.67;100.00
47522;BME280;32291;52.010;4.446;2023-08-17T01:58:01;78229.72;;;-144.67;100.00
47522;BME280;32291;52.010;4.446;2023-08-17T01:59:04;78229.72;;;-144.67;100.00
47522;BME280;32291;52.010;4.446;2023-08-17T02:00:07;78231.88;;;-144.67;100.00
47522;BME280;32291;52.010;4.446;2023-08-17T02:01:12;78227.59;;;-144.67;100.00
47522;BME280;32291;52.010;4.446;2023-08-17T02:02:15;78231.88;;;-144.67;100.00
47522;BME280;32291;52.010;4.446;2023-08-17T02:03:17;78227.59;;;-144.67;100.00
47522;BME280;32291;52.010;4.446;2023-08-17T02:04:20;78227.59;;;-144.67;100.00
47522;BME280;32291;52.010;4.446;2023-08-17T02:05:27;78229.72;;;-144.67;100.00
47522;BME280;32291;52.010;4.446;2023-08-17T02:06:31;78229.72;;;-144.67;100.00
47522;BME280;32291;52.010;4.446;2023-08-17T02:07:35;78225.44;;;-144.67;100.00
47522;BME280;32291;52.010;4.446;2023-08-17T02:08:45;78227.59;;;-144.67;100.00
47522;BME280;32291;52.010;4.446;2023-08-17T02:09:50;78223.31;;;-144.67;100.00
47522;BME280;32291;52.010;4.446;2023-08-17T02:10:58;78221.16;;;-144.67;100.00
47522;BME280;32291;52.010;4.446;2023-08-17T02:12:00;78227.59;;;-144.67;100.00
47522;BME280;32291;52.010;4.446;2023-08-17T02:13:07;78227.59;;;-144.67;100.00
47522;BME280;32291;52.010;4.446;2023-08-17T02:14:09;78219.03;;;-144.67;100.00
47522;BME280;32291;52.010;4.446;2023-08-17T02:15:12;78214.75;;;-144.67;100.00
47522;BME280;32291;52.010;4.446;2023-08-17T02:16:14;78214.75;;;-144.67;100.00
47522;BME280;32291;52.010;4.446;2023-08-17T02:17:18;78223.31;;;-144.67;100.00
47522;BME280;32291;52.010;4.446;2023-08-17T02:18:21;78225.44;;;-144.67;100.00
47522;BME280;32291;52.010;4.446;2023-08-17T02:19:28;78214.75;;;-144.67;100.00
47522;BME280;32291;52.010;4.446;2023-08-17T02:20:35;78219.03;;;-144.67;100.00
47522;BME280;32291;52.010;4.446;2023-08-17T02:21:37;78223.31;;;-144.67;100.00
47522;BME280;32291;52.010;4.446;2023-08-17T02:22:40;78229.72;;;-144.67;100.00
47522;BME280;32291;52.010;4.446;2023-08-17T02:23:42;78221.16;;;-144.67;100.00
47522;BME280;32291;52.010;4.446;2023-08-17T02:24:44;78225.44;;;-144.67;100.00
47522;BME280;32291;52.010;4.446;2023-08-17T02:25:53;78231.88;;;-144.67;100.00
47522;BME280;32291;52.010;4.446;2023-08-17T02:26:55;78231.88;;;-144.67;100.00
47522;BME280;32291;52.010;4.446;2023-08-17T02:27:57;78236.16;;;-144.67;100.00
47522;BME280;32291;52.010;4.446;2023-08-17T02:29:00;78238.28;;;-144.67;100.00
47522;BME280;32291;52.010;4.446;2023-08-17T02:30:03;78236.16;;;-144.67;100.00
47522;BME280;32291;52.010;4.446;2023-08-17T02:31:06;78229.72;;;-144.67;100.00
47522;BME280;32291;52.010;4.446;2023-08-17T02:32:08;78223.31;;;-144.67;100.00
47522;BME280;32291;52.010;4.446;2023-08-17T02:33:15;78236.16;;;-144.67;100.00
47522;BME280;32291;52.010;4.446;2023-08-17T02:34:24;78231.88;;;-144.67;100.00
47522;BME280;32291;52.010;4.446;2023-08-17T02:35:33;78236.16;;;-144.67;100.00
47522;BME280;32291;52.010;4.446;2023-08-17T02:36:35;78240.44;;;-144.67;100.00
47522;BME280;32291;52.010;4.446;2023-08-17T02:37:37;78244.72;;;-144.67;100.00
47522;BME280;32291;52.010;4.446;2023-08-17T02:38:44;78251.13;;;-144.67;100.00
47522;BME280;32291;52.010;4.446;2023-08-17T02:39:49;78249.00;;;-144.67;100.00
47522;BME280;32291;52.010;4.446;2023-08-17T02:40:52;78244.72;;;-144.67;100.00
47522;BME280;32291;52.010;4.446;2023-08-17T02:41:54;78244.72;;;-144.67;100.00
47522;BME280;32291;52.010;4.446;2023-08-17T02:42:57;78240.44;;;-144.67;100.00
47522;BME280;32291;52.010;4.446;2023-08-17T02:44:00;78249.00;;;-144.67;100.00
47522;BME280;32291;52.010;4.446;2023-08-17T02:45:03;78249.00;;;-144.67;100.00
47522;BME280;32291;52.010;4.446;2023-08-17T02:46:05;78242.56;;;-144.67;100.00
47522;BME280;32291;52.010;4.446;2023-08-17T02:47:09;78244.72;;;-144.67;100.00
47522;BME280;32291;52.010;4.446;2023-08-17T02:48:16;78240.44;;;-144.67;100.00
47522;BME280;32291;52.010;4.446;2023-08-17T02:49:19;78244.72;;;-144.67;100.00
47522;BME280;32291;52.010;4.446;2023-08-17T02:50:22;78253.28;;;-144.67;100.00
47522;BME280;32291;52.010;4.446;2023-08-17T02:51:24;78246.84;;;-144.67;100.00
47522;BME280;32291;52.010;4.446;2023-08-17T02:52:27;78251.13;;;-144.67;100.00
47522;BME280;32291;52.010;4.446;2023-08-17T02:53:29;78257.56;;;-144.67;100.00
47522;BME280;32291;52.010;4.446;2023-08-17T02:54:31;78253.28;;;-144.67;100.00
47522;BME280;32291;52.010;4.446;2023-08-17T02:55:39;78257.56;;;-144.67;100.00
47522;BME280;32291;52.010;4.446;2023-08-17T02:56:42;78257.56;;;-144.67;100.00
47522;BME280;32291;52.010;4.446;2023-08-17T02:57:44;78257.56;;;-144.67;100.00
47522;BME280;32291;52.010;4.446;2023-08-17T02:58:50;78261.84;;;-144.67;100.00
47522;BME280;32291;52.010;4.446;2023-08-17T02:59:57;78266.13;;;-144.67;100.00
47522;BME280;32291;52.010;4.446;2023-08-17T03:01:02;78261.84;;;-144.67;100.00
47522;BME280;32291;52.010;4.446;2023-08-17T03:02:05;78268.25;;;-144.67;100.00
47522;BME280;32291;52.010;4.446;2023-08-17T03:03:12;78274.69;;;-144.67;100.00
47522;BME280;32291;52.010;4.446;2023-08-17T03:04:15;78270.41;;;-144.67;100.00
47522;BME280;32291;52.010;4.446;2023-08-17T03:05:18;78270.41;;;-144.67;100.00
47522;BME280;32291;52.010;4.446;2023-08-17T03:06:21;78272.53;;;-144.67;100.00
47522;BME280;32291;52.010;4.446;2023-08-17T03:07:24;78270.41;;;-144.67;100.00
47522;BME280;32291;52.010;4.446;2023-08-17T03:08:26;78268.25;;;-144.67;100.00
47522;BME280;32291;52.010;4.446;2023-08-17T03:09:29;78272.53;;;-144.67;100.00
47522;BME280;32291;52.010;4.446;2023-08-17T03:10:37;78272.53;;;-144.67;100.00
47522;BME280;32291;52.010;4.446;2023-08-17T03:11:45;78272.53;;;-144.67;100.00
47522;BME280;32291;52.010;4.446;2023-08-17T03:12:47;78270.41;;;-144.67;100.00
47522;BME280;32291;52.010;4.446;2023-08-17T03:13:53;78274.69;;;-144.67;100.00
47522;BME280;32291;52.010;4.446;2023-08-17T03:15:02;78274.69;;;-144.67;100.00
47522;BME280;32291;52.010;4.446;2023-08-17T03:16:05;78270.41;;;-144.67;100.00
47522;BME280;32291;52.010;4.446;2023-08-17T03:17:08;78266.13;;;-144.67;100.00
47522;BME280;32291;52.010;4.446;2023-08-17T03:18:14;78270.41;;;-144.67;100.00
47522;BME280;32291;52.010;4.446;2023-08-17T03:19:23;78266.13;;;-144.67;100.00
47522;BME280;32291;52.010;4.446;2023-08-17T03:20:26;78270.41;;;-144.67;100.00
47522;BME280;32291;52.010;4.446;2023-08-17T03:21:29;78272.53;;;-144.67;100.00
47522;BME280;32291;52.010;4.446;2023-08-17T03:22:36;78272.53;;;-144.67;100.00
47522;BME280;32291;52.010;4.446;2023-08-17T03:23:40;78272.53;;;-144.67;100.00
47522;BME280;32291;52.010;4.446;2023-08-17T03:24:42;78270.41;;;-144.67;100.00
47522;BME280;32291;52.010;4.446;2023-08-17T03:25:54;78276.81;;;-144.67;100.00
47522;BME280;32291;52.010;4.446;2023-08-17T03:26:57;78272.53;;;-144.67;100.00
47522;BME280;32291;52.010;4.446;2023-08-17T03:28:04;78270.41;;;-144.67;100.00
47522;BME280;32291;52.010;4.446;2023-08-17T03:29:06;78278.97;;;-144.67;100.00
47522;BME280;32291;52.010;4.446;2023-08-17T03:30:15;78270.41;;;-144.67;100.00
47522;BME280;32291;52.010;4.446;2023-08-17T03:31:23;78266.13;;;-144.67;100.00
47522;BME280;32291;52.010;4.446;2023-08-17T03:32:30;78257.56;;;-144.67;100.00
47522;BME280;32291;52.010;4.446;2023-08-17T03:33:33;78253.28;;;-144.67;100.00
47522;BME280;32291;52.010;4.446;2023-08-17T03:34:35;78268.25;;;-144.67;100.00
47522;BME280;32291;52.010;4.446;2023-08-17T03:35:42;78259.69;;;-144.67;100.00
47522;BME280;32291;52.010;4.446;2023-08-17T03:36:50;78261.84;;;-144.67;100.00
47522;BME280;32291;52.010;4.446;2023-08-17T03:37:52;78257.56;;;-144.67;100.00
47522;BME280;32291;52.010;4.446;2023-08-17T03:38:54;78259.69;;;-144.67;100.00
47522;BME280;32291;52.010;4.446;2023-08-17T03:39:56;78261.84;;;-144.67;100.00
47522;BME280;32291;52.010;4.446;2023-08-17T03:40:59;78266.13;;;-144.67;100.00
47522;BME280;32291;52.010;4.446;2023-08-17T03:42:06;78257.56;;;-144.67;100.00
47522;BME280;32291;52.010;4.446;2023-08-17T03:43:08;78261.84;;;-144.67;100.00
47522;BME280;32291;52.010;4.446;2023-08-17T03:44:10;78253.28;;;-144.67;100.00
47522;BME280;32291;52.010;4.446;2023-08-17T03:45:18;78266.13;;;-144.67;100.00
47522;BME280;32291;52.010;4.446;2023-08-17T03:46:21;78266.13;;;-144.67;100.00
47522;BME280;32291;52.010;4.446;2023-08-17T03:47:27;78263.97;;;-144.67;100.00
47522;BME280;32291;52.010;4.446;2023-08-17T03:48:34;78263.97;;;-144.67;100.00
47522;BME280;32291;52.010;4.446;2023-08-17T03:49:37;78261.84;;;-144.67;100.00
47522;BME280;32291;52.010;4.446;2023-08-17T03:50:40;78268.25;;;-144.67;100.00
47522;BME280;32291;52.010;4.446;2023-08-17T03:51:47;78278.97;;;-144.67;100.00
47522;BME280;32291;52.010;4.446;2023-08-17T03:52:53;78274.69;;;-144.67;100.00
47522;BME280;32291;52.010;4.446;2023-08-17T03:54:00;78268.25;;;-144.67;100.00
47522;BME280;32291;52.010;4.446;2023-08-17T03:55:02;78270.41;;;-144.67;100.00
47522;BME280;32291;52.010;4.446;2023-08-17T03:56:07;78274.69;;;-144.67;100.00
47522;BME280;32291;52.010;4.446;2023-08-17T03:57:14;78272.53;;;-144.67;100.00
47522;BME280;32291;52.010;4.446;2023-08-17T03:58:20;78287.53;;;-144.67;100.00
47522;BME280;32291;52.010;4.446;2023-08-17T03:59:23;78287.53;;;-144.67;100.00
47522;BME280;32291;52.010;4.446;2023-08-17T04:00:25;78283.25;;;-144.67;100.00
47522;BME280;32291;52.010;4.446;2023-08-17T04:01:28;78278.97;;;-144.67;100.00
47522;BME280;32291;52.010;4.446;2023-08-17T04:02:30;78278.97;;;-144.67;100.00
47522;BME280;32291;52.010;4.446;2023-08-17T04:03:33;78278.97;;;-144.67;100.00
47522;BME280;32291;52.010;4.446;2023-08-17T04:04:40;78274.69;;;-144.67;100.00
47522;BME280;32291;52.010;4.446;2023-08-17T04:05:42;78278.97;;;-144.67;100.00
47522;BME280;32291;52.010;4.446;2023-08-17T04:06:45;78283.25;;;-144.67;100.00
47522;BME280;32291;52.010;4.446;2023-08-17T04:07:51;78283.25;;;-144.67;100.00
47522;BME280;32291;52.010;4.446;2023-08-17T04:08:56;78293.94;;;-144.67;100.00
47522;BME280;32291;52.010;4.446;2023-08-17T04:10:06;78298.22;;;-144.67;100.00
47522;BME280;32291;52.010;4.446;2023-08-17T04:11:08;78293.94;;;-144.67;100.00
47522;BME280;32291;52.010;4.446;2023-08-17T04:12:11;78304.66;;;-144.67;100.00
47522;BME280;32291;52.010;4.446;2023-08-17T04:13:13;78308.94;;;-144.67;100.00
47522;BME280;32291;52.010;4.446;2023-08-17T04:14:15;78311.09;;;-144.67;100.00
47522;BME280;32291;52.010;4.446;2023-08-17T04:15:19;78308.94;;;-144.67;100.00
47522;BME280;32291;52.010;4.446;2023-08-17T04:16:22;78308.94;;;-144.67;100.00
47522;BME280;32291;52.010;4.446;2023-08-17T04:17:24;78313.22;;;-144.67;100.00
47522;BME280;32291;52.010;4.446;2023-08-17T04:18:27;78308.94;;;-144.67;100.00
47522;BME280;32291;52.010;4.446;2023-08-17T04:19:29;78313.22;;;-144.67;100.00
47522;BME280;32291;52.010;4.446;2023-08-17T04:20:36;78313.22;;;-144.67;100.00
47522;BME280;32291;52.010;4.446;2023-08-17T04:21:42;78311.09;;;-144.67;100.00
47522;BME280;32291;52.010;4.446;2023-08-17T04:22:45;78306.81;;;-144.67;100.00
47522;BME280;32291;52.010;4.446;2023-08-17T04:23:50;78308.94;;;-144.67;100.00
47522;BME280;32291;52.010;4.446;2023-08-17T04:24:55;78308.94;;;-144.67;100.00
47522;BME280;32291;52.010;4.446;2023-08-17T04:25:58;78313.22;;;-144.67;100.00
47522;BME280;32291;52.010;4.446;2023-08-17T04:27:01;78308.94;;;-144.67;100.00
47522;BME280;32291;52.010;4.446;2023-08-17T04:28:03;78311.09;;;-144.67;100.00
47522;BME280;32291;52.010;4.446;2023-08-17T04:29:06;78304.66;;;-144.67;100.00
47522;BME280;32291;52.010;4.446;2023-08-17T04:30:10;78298.22;;;-144.67;100.00
47522;BME280;32291;52.010;4.446;2023-08-17T04:31:12;78291.81;;;-144.67;100.00
47522;BME280;32291;52.010;4.446;2023-08-17T04:32:15;78283.25;;;-144.67;100.00
47522;BME280;32291;52.010;4.446;2023-08-17T04:33:26;78300.38;;;-144.67;100.00
47522;BME280;32291;52.010;4.446;2023-08-17T04:34:33;78287.53;;;-144.67;100.00
47522;BME280;32291;52.010;4.446;2023-08-17T04:35:36;78291.81;;;-144.67;100.00
47522;BME280;32291;52.010;4.446;2023-08-17T04:36:38;78293.94;;;-144.67;100.00
47522;BME280;32291;52.010;4.446;2023-08-17T04:37:45;78291.81;;;-144.67;100.00
47522;BME280;32291;52.010;4.446;2023-08-17T04:38:49;78296.09;;;-144.67;100.00
47522;BME280;32291;52.010;4.446;2023-08-17T04:39:57;78293.94;;;-144.67;100.00
47522;BME280;32291;52.010;4.446;2023-08-17T04:40:59;78293.94;;;-144.67;100.00
47522;BME280;32291;52.010;4.446;2023-08-17T04:42:06;78285.38;;;-144.67;100.00
47522;BME280;32291;52.010;4.446;2023-08-17T04:43:10;78278.97;;;-144.67;100.00
47522;BME280;32291;52.010;4.446;2023-08-17T04:44:13;78278.97;;;-144.67;100.00
47522;BME280;32291;52.010;4.446;2023-08-17T04:45:15;78283.25;;;-144.67;100.00
47522;BME280;32291;52.010;4.446;2023-08-17T04:46:17;78278.97;;;-144.67;100.00
47522;BME280;32291;52.010;4.446;2023-08-17T04:47:20;78281.09;;;-144.67;100.00
47522;BME280;32291;52.010;4.446;2023-08-17T04:48:22;78276.81;;;-144.67;100.00
47522;BME280;32291;52.010;4.446;2023-08-17T04:49:29;78274.69;;;-144.67;100.00
47522;BME280;32291;52.010;4.446;2023-08-17T04:50:36;78268.25;;;-144.67;100.00
47522;BME280;32291;52.010;4.446;2023-08-17T04:51:39;78270.41;;;-144.67;100.00
47522;BME280;32291;52.010;4.446;2023-08-17T04:52:42;78266.13;;;-144.67;100.00
47522;BME280;32291;52.010;4.446;2023-08-17T04:53:45;78266.13;;;-144.67;100.00
47522;BME280;32291;52.010;4.446;2023-08-17T04:54:50;78266.13;;;-144.67;100.00
47522;BME280;32291;52.010;4.446;2023-08-17T04:55:59;78261.84;;;-144.67;100.00
47522;BME280;32291;52.010;4.446;2023-08-17T04:57:01;78268.25;;;-144.67;100.00
47522;BME280;32291;52.010;4.446;2023-08-17T04:58:05;78272.53;;;-144.67;100.00
47522;BME280;32291;52.010;4.446;2023-08-17T04:59:07;78261.84;;;-144.67;100.00
47522;BME280;32291;52.010;4.446;2023-08-17T05:00:11;78263.97;;;-144.67;100.00
47522;BME280;32291;52.010;4.446;2023-08-17T05:01:18;78266.13;;;-144.67;100.00
47522;BME280;32291;52.010;4.446;2023-08-17T05:02:23;78257.56;;;-144.67;100.00
47522;BME280;32291;52.010;4.446;2023-08-17T05:03:26;78257.56;;;-144.67;100.00
47522;BME280;32291;52.010;4.446;2023-08-17T05:04:32;78257.56;;;-144.67;100.00
47522;BME280;32291;52.010;4.446;2023-08-17T05:05:43;78249.00;;;-144.67;100.00
47522;BME280;32291;52.010;4.446;2023-08-17T05:06:47;78251.13;;;-144.67;100.00
47522;BME280;32291;52.010;4.446;2023-08-17T05:07:53;78253.28;;;-144.67;100.00
47522;BME280;32291;52.010;4.446;2023-08-17T05:08:57;78244.72;;;-144.67;100.00
47522;BME280;32291;52.010;4.446;2023-08-17T05:10:01;78240.44;;;-144.67;100.00
47522;BME280;32291;52.010;4.446;2023-08-17T05:11:04;78249.00;;;-144.67;100.00
47522;BME280;32291;52.010;4.446;2023-08-17T05:12:11;78240.44;;;-144.67;100.00
47522;BME280;32291;52.010;4.446;2023-08-17T05:13:23;78244.72;;;-144.67;100.00
47522;BME280;32291;52.010;4.446;2023-08-17T05:14:25;78244.72;;;-144.67;100.00
47522;BME280;32291;52.010;4.446;2023-08-17T05:15:27;78244.72;;;-144.67;100.00
47522;BME280;32291;52.010;4.446;2023-08-17T05:16:35;78236.16;;;-144.67;100.00
47522;BME280;32291;52.010;4.446;2023-08-17T05:17:37;78240.44;;;-144.67;100.00
47522;BME280;32291;52.010;4.446;2023-08-17T05:18:40;78240.44;;;-144.67;100.00
47522;BME280;32291;52.010;4.446;2023-08-17T05:19:47;78236.16;;;-144.67;100.00
47522;BME280;32291;52.010;4.446;2023-08-17T05:20:53;78231.88;;;-144.67;100.00
47522;BME280;32291;52.010;4.446;2023-08-17T05:22:00;78234.00;;;-144.67;100.00
47522;BME280;32291;52.010;4.446;2023-08-17T05:23:07;78236.16;;;-144.67;100.00
47522;BME280;32291;52.010;4.446;2023-08-17T05:24:12;78229.72;;;-144.67;100.00
47522;BME280;32291;52.010;4.446;2023-08-17T05:25:15;78227.59;;;-144.67;100.00
47522;BME280;32291;52.010;4.446;2023-08-17T05:26:23;78234.00;;;-144.67;100.00
47522;BME280;32291;52.010;4.446;2023-08-17T05:27:25;78231.88;;;-144.67;100.00
47522;BME280;32291;52.010;4.446;2023-08-17T05:28:32;78229.72;;;-144.67;100.00
47522;BME280;32291;52.010;4.446;2023-08-17T05:29:35;78227.59;;;-144.67;100.00
47522;BME280;32291;52.010;4.446;2023-08-17T05:30:37;78227.59;;;-144.67;100.00
47522;BME280;32291;52.010;4.446;2023-08-17T05:31:42;78227.59;;;-144.67;100.00
47522;BME280;32291;52.010;4.446;2023-08-17T05:32:44;78234.00;;;-144.67;100.00
47522;BME280;32291;52.010;4.446;2023-08-17T05:33:51;78229.72;;;-144.67;100.00